sensor_id;sensor_type;location;lat;lon;timestamp;pressure;altitude;pressure_sealevel;temperature;humidity
29379;BME280;16362;47.202;15.258;2023-03-15T00:00:11;94937.34;;;5.91;62.93
29379;BME280;16362;47.202;15.258;2023-03-15T00:02:38;94939.97;;;5.91;62.51
29379;BME280;16362;47.202;15.258;2023-03-15T00:05:05;94936.78;;;5.81;69.23
29379;BME280;16362;47.202;15.258;2023-03-15T00:07:32;94948.28;;;5.88;63.68
29379;BME280;16362;47.202;15.258;2023-03-15T00:09:58;94935.81;;;5.97;62.73
29379;BME280;16362;47.202;15.258;2023-03-15T00:12:25;94940.66;;;5.93;63.60
29379;BME280;16362;47.202;15.258;2023-03-15T00:14:51;94955.94;;;5.83;69.03
29379;BME280;16362;47.202;15.258;2023-03-15T00:17:18;94954.47;;;5.80;64.40
29379;BME280;16362;47.202;15.258;2023-03-15T00:19:44;94962.66;;;5.70;66.42
29379;BME280;16362;47.202;15.258;2023-03-15T00:22:13;94966.84;;;5.65;63.10
29379;BME280;16362;47.202;15.258;2023-03-15T00:24:39;94961.78;;;5.78;59.86
29379;BME280;16362;47.202;15.258;2023-03-15T00:27:06;94950.50;;;6.07;59.54
29379;BME280;16362;47.202;15.258;2023-03-15T00:29:33;94954.84;;;6.00;62.67
29379;BME280;16362;47.202;15.258;2023-03-15T00:31:59;94969.19;;;5.83;64.59
29379;BME280;16362;47.202;15.258;2023-03-15T00:34:26;94966.28;;;5.69;66.06
29379;BME280;16362;47.202;15.258;2023-03-15T00:36:52;94960.06;;;5.62;67.88
29379;BME280;16362;47.202;15.258;2023-03-15T00:39:19;94961.72;;;5.63;64.23
29379;BME280;16362;47.202;15.258;2023-03-15T00:41:46;94967.00;;;5.63;65.34
29379;BME280;16362;47.202;15.258;2023-03-15T00:44:12;94971.56;;;5.93;56.75
29379;BME280;16362;47.202;15.258;2023-03-15T00:46:39;94985.97;;;5.75;65.60
29379;BME280;16362;47.202;15.258;2023-03-15T00:49:06;94974.78;;;5.88;61.16
29379;BME280;16362;47.202;15.258;2023-03-15T00:51:32;94978.03;;;5.75;65.35
29379;BME280;16362;47.202;15.258;2023-03-15T00:53:59;94993.66;;;5.62;65.60
29379;BME280;16362;47.202;15.258;2023-03-15T00:56:26;94990.72;;;5.80;54.82
29379;BME280;16362;47.202;15.258;2023-03-15T00:58:53;94998.69;;;6.03;57.31
29379;BME280;16362;47.202;15.258;2023-03-15T01:01:26;94988.22;;;6.10;56.44
29379;BME280;16362;47.202;15.258;2023-03-15T01:03:53;94996.50;;;6.30;54.16
29379;BME280;16362;47.202;15.258;2023-03-15T01:06:24;95000.63;;;6.32;56.27
29379;BME280;16362;47.202;15.258;2023-03-15T01:08:51;95002.66;;;6.22;57.31
29379;BME280;16362;47.202;15.258;2023-03-15T01:11:21;95011.50;;;6.14;59.60
29379;BME280;16362;47.202;15.258;2023-03-15T01:13:51;95017.22;;;6.26;53.79
29379;BME280;16362;47.202;15.258;2023-03-15T01:16:18;95015.47;;;6.18;59.86
29379;BME280;16362;47.202;15.258;2023-03-15T01:18:44;95011.78;;;6.19;55.73
29379;BME280;16362;47.202;15.258;2023-03-15T01:21:12;95017.03;;;6.28;53.84
29379;BME280;16362;47.202;15.258;2023-03-15T01:23:39;95015.75;;;6.23;56.13
29379;BME280;16362;47.202;15.258;2023-03-15T01:26:06;95015.00;;;6.15;58.70
29379;BME280;16362;47.202;15.258;2023-03-15T01:35:26;94993.25;;;6.57;56.19
29379;BME280;16362;47.202;15.258;2023-03-15T01:37:53;95017.47;;;6.16;60.13
29379;BME280;16362;47.202;15.258;2023-03-15T01:40:20;95019.41;;;5.91;60.47
29379;BME280;16362;47.202;15.258;2023-03-15T01:43:20;95011.75;;;6.04;58.72
29379;BME280;16362;47.202;15.258;2023-03-15T01:51:20;95019.81;;;6.11;58.90
29379;BME280;16362;47.202;15.258;2023-03-15T01:53:50;95024.03;;;5.97;60.26
29379;BME280;16362;47.202;15.258;2023-03-15T01:56:18;95016.66;;;5.84;61.64
29379;BME280;16362;47.202;15.258;2023-03-15T01:58:45;94997.84;;;5.79;61.61
29379;BME280;16362;47.202;15.258;2023-03-15T02:01:13;95019.84;;;5.80;63.69
29379;BME280;16362;47.202;15.258;2023-03-15T02:03:42;95007.84;;;5.92;56.67
29379;BME280;16362;47.202;15.258;2023-03-15T02:06:13;95011.97;;;5.95;57.97
29379;BME280;16362;47.202;15.258;2023-03-15T02:08:50;95013.94;;;5.93;60.31
29379;BME280;16362;47.202;15.258;2023-03-15T02:11:19;95019.31;;;5.84;61.52
29379;BME280;16362;47.202;15.258;2023-03-15T02:13:47;95014.41;;;5.73;63.19
29379;BME280;16362;47.202;15.258;2023-03-15T02:16:14;95021.06;;;5.69;66.66
29379;BME280;16362;47.202;15.258;2023-03-15T02:18:41;95017.63;;;5.60;64.11
29379;BME280;16362;47.202;15.258;2023-03-15T02:23:37;95010.84;;;5.89;58.01
29379;BME280;16362;47.202;15.258;2023-03-15T02:26:16;95016.25;;;5.96;57.67
29379;BME280;16362;47.202;15.258;2023-03-15T02:28:46;95011.94;;;6.03;57.86
29379;BME280;16362;47.202;15.258;2023-03-15T02:31:16;95016.41;;;6.02;57.05
29379;BME280;16362;47.202;15.258;2023-03-15T02:33:50;95018.22;;;6.02;58.50
29379;BME280;16362;47.202;15.258;2023-03-15T02:36:18;95020.34;;;6.06;59.87
29379;BME280;16362;47.202;15.258;2023-03-15T02:38:45;95021.72;;;6.02;59.83
29379;BME280;16362;47.202;15.258;2023-03-15T02:41:12;95030.16;;;5.98;58.66
29379;BME280;16362;47.202;15.258;2023-03-15T02:43:40;95027.47;;;6.06;56.38
29379;BME280;16362;47.202;15.258;2023-03-15T02:46:07;95030.03;;;6.14;57.22
29379;BME280;16362;47.202;15.258;2023-03-15T02:48:35;95025.59;;;6.15;57.55
29379;BME280;16362;47.202;15.258;2023-03-15T02:51:03;95031.06;;;6.13;57.90
29379;BME280;16362;47.202;15.258;2023-03-15T02:53:30;95027.41;;;6.14;58.24
29379;BME280;16362;47.202;15.258;2023-03-15T02:55:57;95032.53;;;6.16;55.69
29379;BME280;16362;47.202;15.258;2023-03-15T02:58:24;95031.94;;;6.29;56.94
29379;BME280;16362;47.202;15.258;2023-03-15T03:00:53;95025.34;;;6.24;55.14
29379;BME280;16362;47.202;15.258;2023-03-15T03:03:20;95035.47;;;6.21;56.86
29379;BME280;16362;47.202;15.258;2023-03-15T03:05:46;95040.47;;;6.39;56.33
29379;BME280;16362;47.202;15.258;2023-03-15T03:08:13;95041.25;;;6.24;59.33
29379;BME280;16362;47.202;15.258;2023-03-15T03:10:41;95041.97;;;6.18;56.95
29379;BME280;16362;47.202;15.258;2023-03-15T03:13:08;95044.13;;;6.15;54.75
29379;BME280;16362;47.202;15.258;2023-03-15T03:15:35;95045.59;;;6.17;56.41
29379;BME280;16362;47.202;15.258;2023-03-15T03:18:02;95051.72;;;6.18;54.32
29379;BME280;16362;47.202;15.258;2023-03-15T03:20:28;95061.19;;;6.12;56.75
29379;BME280;16362;47.202;15.258;2023-03-15T03:22:55;95057.84;;;6.18;57.06
29379;BME280;16362;47.202;15.258;2023-03-15T03:25:21;95053.56;;;6.17;55.65
29379;BME280;16362;47.202;15.258;2023-03-15T03:27:52;95062.84;;;6.13;55.48
29379;BME280;16362;47.202;15.258;2023-03-15T03:30:22;95069.50;;;6.09;58.36
29379;BME280;16362;47.202;15.258;2023-03-15T03:32:49;95069.50;;;6.09;59.54
29379;BME280;16362;47.202;15.258;2023-03-15T03:36:54;95072.44;;;6.14;53.12
29379;BME280;16362;47.202;15.258;2023-03-15T03:39:21;95074.81;;;6.09;55.42
29379;BME280;16362;47.202;15.258;2023-03-15T03:41:47;95087.56;;;6.05;54.14
29379;BME280;16362;47.202;15.258;2023-03-15T03:44:15;95084.91;;;6.05;58.72
29379;BME280;16362;47.202;15.258;2023-03-15T03:46:42;95100.31;;;6.02;57.44
29379;BME280;16362;47.202;15.258;2023-03-15T03:49:09;95095.88;;;6.02;59.27
29379;BME280;16362;47.202;15.258;2023-03-15T03:51:35;95110.28;;;5.92;59.80
29379;BME280;16362;47.202;15.258;2023-03-15T03:54:03;95111.16;;;5.84;59.61
29379;BME280;16362;47.202;15.258;2023-03-15T03:56:30;95117.78;;;5.80;61.43
29379;BME280;16362;47.202;15.258;2023-03-15T03:58:56;95122.41;;;5.78;61.91
29379;BME280;16362;47.202;15.258;2023-03-15T04:01:23;95124.63;;;5.74;59.57
29379;BME280;16362;47.202;15.258;2023-03-15T04:03:49;95119.50;;;5.72;58.15
29379;BME280;16362;47.202;15.258;2023-03-15T04:06:16;95125.06;;;5.78;58.41
29379;BME280;16362;47.202;15.258;2023-03-15T04:08:43;95127.09;;;5.76;60.03
29379;BME280;16362;47.202;15.258;2023-03-15T04:11:09;95126.41;;;5.73;60.23
29379;BME280;16362;47.202;15.258;2023-03-15T04:13:36;95122.81;;;5.66;57.45
29379;BME280;16362;47.202;15.258;2023-03-15T04:16:02;95128.59;;;5.70;58.99
29379;BME280;16362;47.202;15.258;2023-03-15T04:18:32;95123.44;;;5.77;57.05
29379;BME280;16362;47.202;15.258;2023-03-15T04:20:58;95120.25;;;5.81;55.99
29379;BME280;16362;47.202;15.258;2023-03-15T04:25:56;95124.25;;;5.77;58.24
29379;BME280;16362;47.202;15.258;2023-03-15T04:28:23;95127.56;;;5.79;55.95
29379;BME280;16362;47.202;15.258;2023-03-15T04:30:49;95118.66;;;5.72;57.70
29379;BME280;16362;47.202;15.258;2023-03-15T04:33:16;95121.09;;;5.82;57.64
29379;BME280;16362;47.202;15.258;2023-03-15T04:35:43;95132.38;;;5.76;57.83
29379;BME280;16362;47.202;15.258;2023-03-15T04:38:09;95133.06;;;5.69;60.21
29379;BME280;16362;47.202;15.258;2023-03-15T04:40:36;95141.69;;;5.63;59.59
29379;BME280;16362;47.202;15.258;2023-03-15T04:43:03;95146.81;;;5.65;60.09
29379;BME280;16362;47.202;15.258;2023-03-15T04:45:30;95142.16;;;5.67;58.00
29379;BME280;16362;47.202;15.258;2023-03-15T04:47:57;95139.69;;;5.65;58.80
29379;BME280;16362;47.202;15.258;2023-03-15T04:50:23;95145.84;;;5.57;61.15
29379;BME280;16362;47.202;15.258;2023-03-15T04:52:50;95150.47;;;5.55;61.26
29379;BME280;16362;47.202;15.258;2023-03-15T04:55:17;95145.81;;;5.66;58.35
29379;BME280;16362;47.202;15.258;2023-03-15T04:57:43;95147.84;;;5.55;60.95
29379;BME280;16362;47.202;15.258;2023-03-15T05:00:10;95145.53;;;5.52;62.54
29379;BME280;16362;47.202;15.258;2023-03-15T05:02:38;95149.19;;;5.51;59.68
29379;BME280;16362;47.202;15.258;2023-03-15T05:05:07;95154.78;;;5.56;57.94
29379;BME280;16362;47.202;15.258;2023-03-15T05:07:34;95148.50;;;5.49;57.61
29379;BME280;16362;47.202;15.258;2023-03-15T05:10:01;95157.44;;;5.56;57.84
29379;BME280;16362;47.202;15.258;2023-03-15T05:12:28;95159.25;;;5.56;60.96
29379;BME280;16362;47.202;15.258;2023-03-15T05:14:54;95154.78;;;5.56;58.62
29379;BME280;16362;47.202;15.258;2023-03-15T05:17:21;95166.72;;;5.52;60.36
29379;BME280;16362;47.202;15.258;2023-03-15T05:19:48;95175.81;;;5.50;60.33
29379;BME280;16362;47.202;15.258;2023-03-15T05:22:15;95175.81;;;5.50;62.00
29379;BME280;16362;47.202;15.258;2023-03-15T05:24:41;95176.81;;;5.49;61.66
29379;BME280;16362;47.202;15.258;2023-03-15T05:27:21;95176.47;;;5.44;60.37
29379;BME280;16362;47.202;15.258;2023-03-15T05:29:48;95189.84;;;5.50;61.23
29379;BME280;16362;47.202;15.258;2023-03-15T05:32:16;95189.38;;;5.55;58.33
29379;BME280;16362;47.202;15.258;2023-03-15T05:34:43;95187.34;;;5.65;59.18
29379;BME280;16362;47.202;15.258;2023-03-15T05:37:09;95196.13;;;5.66;60.03
29379;BME280;16362;47.202;15.258;2023-03-15T05:39:37;95200.09;;;5.62;60.76
29379;BME280;16362;47.202;15.258;2023-03-15T05:42:04;95210.38;;;5.56;61.50
29379;BME280;16362;47.202;15.258;2023-03-15T05:44:30;95203.88;;;5.67;60.47
29379;BME280;16362;47.202;15.258;2023-03-15T05:46:57;95229.19;;;5.70;58.84
29379;BME280;16362;47.202;15.258;2023-03-15T05:49:24;95225.06;;;5.67;57.73
29379;BME280;16362;47.202;15.258;2023-03-15T05:51:50;95230.81;;;5.71;58.54
29379;BME280;16362;47.202;15.258;2023-03-15T05:54:17;95235.13;;;5.72;58.94
29379;BME280;16362;47.202;15.258;2023-03-15T05:56:43;95241.91;;;5.74;59.22
29379;BME280;16362;47.202;15.258;2023-03-15T05:59:10;95253.34;;;5.75;59.23
29379;BME280;16362;47.202;15.258;2023-03-15T06:01:37;95258.94;;;5.72;59.77
29379;BME280;16362;47.202;15.258;2023-03-15T06:05:16;95264.22;;;5.80;60.33
29379;BME280;16362;47.202;15.258;2023-03-15T06:07:43;95277.16;;;5.75;59.64
29379;BME280;16362;47.202;15.258;2023-03-15T06:10:11;95281.78;;;5.73;60.49
29379;BME280;16362;47.202;15.258;2023-03-15T06:12:39;95288.41;;;5.77;61.43
29379;BME280;16362;47.202;15.258;2023-03-15T06:15:07;95270.19;;;5.82;60.26
29379;BME280;16362;47.202;15.258;2023-03-15T06:18:37;95289.06;;;5.79;59.91
29379;BME280;16362;47.202;15.258;2023-03-15T06:21:03;95296.00;;;5.80;60.36
29379;BME280;16362;47.202;15.258;2023-03-15T06:23:57;95290.38;;;5.92;61.30
29379;BME280;16362;47.202;15.258;2023-03-15T06:26:23;95295.84;;;5.90;60.89
29379;BME280;16362;47.202;15.258;2023-03-15T06:28:50;95310.41;;;5.86;61.98
29379;BME280;16362;47.202;15.258;2023-03-15T06:31:17;95315.34;;;5.89;61.61
29379;BME280;16362;47.202;15.258;2023-03-15T06:33:43;95314.53;;;5.80;62.88
29379;BME280;16362;47.202;15.258;2023-03-15T06:36:10;95322.66;;;5.79;62.30
29379;BME280;16362;47.202;15.258;2023-03-15T06:38:37;95322.66;;;5.79;62.23
29379;BME280;16362;47.202;15.258;2023-03-15T06:41:03;95329.94;;;5.77;61.56
29379;BME280;16362;47.202;15.258;2023-03-15T06:43:30;95321.84;;;5.78;62.57
29379;BME280;16362;47.202;15.258;2023-03-15T06:45:57;95332.41;;;5.78;64.33
29379;BME280;16362;47.202;15.258;2023-03-15T06:48:26;95334.91;;;5.80;62.73
29379;BME280;16362;47.202;15.258;2023-03-15T06:50:52;95336.56;;;5.81;63.70
29379;BME280;16362;47.202;15.258;2023-03-15T06:53:19;95351.59;;;5.88;64.07
29379;BME280;16362;47.202;15.258;2023-03-15T06:55:46;95350.25;;;5.93;62.54
29379;BME280;16362;47.202;15.258;2023-03-15T06:58:13;95365.31;;;5.92;62.91
29379;BME280;16362;47.202;15.258;2023-03-15T07:00:40;95350.75;;;5.96;64.86
29379;BME280;16362;47.202;15.258;2023-03-15T07:03:07;95359.88;;;5.94;62.67
29379;BME280;16362;47.202;15.258;2023-03-15T07:06:18;95370.44;;;5.94;62.36
29379;BME280;16362;47.202;15.258;2023-03-15T07:08:45;95367.16;;;5.92;62.71
29379;BME280;16362;47.202;15.258;2023-03-15T07:11:12;95370.13;;;5.88;61.85
29379;BME280;16362;47.202;15.258;2023-03-15T07:13:38;95379.91;;;5.88;61.93
29379;BME280;16362;47.202;15.258;2023-03-15T07:16:05;95385.03;;;5.81;62.05
29379;BME280;16362;47.202;15.258;2023-03-15T07:18:32;95392.97;;;5.89;62.62
29379;BME280;16362;47.202;15.258;2023-03-15T07:21:00;95389.84;;;5.86;62.09
29379;BME280;16362;47.202;15.258;2023-03-15T07:23:27;95395.97;;;5.86;62.30
29379;BME280;16362;47.202;15.258;2023-03-15T07:25:54;95405.41;;;5.89;62.22
29379;BME280;16362;47.202;15.258;2023-03-15T07:28:21;95410.19;;;5.85;60.93
29379;BME280;16362;47.202;15.258;2023-03-15T07:30:51;95407.06;;;5.90;61.24
29379;BME280;16362;47.202;15.258;2023-03-15T07:33:19;95415.81;;;5.90;61.74
29379;BME280;16362;47.202;15.258;2023-03-15T07:35:48;95420.28;;;5.90;62.98
29379;BME280;16362;47.202;15.258;2023-03-15T07:38:15;95423.13;;;5.97;62.38
29379;BME280;16362;47.202;15.258;2023-03-15T07:40:41;95424.59;;;5.99;62.21
29379;BME280;16362;47.202;15.258;2023-03-15T07:43:08;95435.53;;;6.04;60.94
29379;BME280;16362;47.202;15.258;2023-03-15T07:45:35;95427.75;;;6.03;61.19
29379;BME280;16362;47.202;15.258;2023-03-15T07:48:01;95442.31;;;6.07;61.27
29379;BME280;16362;47.202;15.258;2023-03-15T07:50:28;95454.91;;;6.05;60.64
29379;BME280;16362;47.202;15.258;2023-03-15T07:52:54;95441.00;;;6.11;62.23
29379;BME280;16362;47.202;15.258;2023-03-15T07:55:21;95446.97;;;6.13;62.28
29379;BME280;16362;47.202;15.258;2023-03-15T07:57:48;95456.06;;;6.19;62.56
29379;BME280;16362;47.202;15.258;2023-03-15T08:00:17;95454.75;;;6.15;61.27
29379;BME280;16362;47.202;15.258;2023-03-15T08:02:44;95447.94;;;6.20;61.24
29379;BME280;16362;47.202;15.258;2023-03-15T08:07:29;95453.72;;;6.32;63.59
29379;BME280;16362;47.202;15.258;2023-03-15T08:09:56;95448.75;;;6.37;62.68
29379;BME280;16362;47.202;15.258;2023-03-15T08:12:26;95460.50;;;6.43;60.77
29379;BME280;16362;47.202;15.258;2023-03-15T08:14:53;95451.88;;;6.49;61.37
29379;BME280;16362;47.202;15.258;2023-03-15T08:17:20;95462.81;;;6.46;59.72
29379;BME280;16362;47.202;15.258;2023-03-15T08:19:46;95455.19;;;6.51;59.91
29379;BME280;16362;47.202;15.258;2023-03-15T08:22:13;95469.94;;;6.54;61.71
29379;BME280;16362;47.202;15.258;2023-03-15T08:24:39;95476.72;;;6.56;59.49
29379;BME280;16362;47.202;15.258;2023-03-15T08:27:06;95482.66;;;6.58;61.23
29379;BME280;16362;47.202;15.258;2023-03-15T08:29:33;95486.16;;;6.59;60.47
29379;BME280;16362;47.202;15.258;2023-03-15T08:31:59;95482.66;;;6.58;61.62
29379;BME280;16362;47.202;15.258;2023-03-15T08:34:26;95484.00;;;6.54;60.47
29379;BME280;16362;47.202;15.258;2023-03-15T08:36:53;95479.38;;;6.56;60.15
29379;BME280;16362;47.202;15.258;2023-03-15T08:39:19;95497.56;;;6.68;62.95
29379;BME280;16362;47.202;15.258;2023-03-15T08:41:49;95495.59;;;6.70;61.09
29379;BME280;16362;47.202;15.258;2023-03-15T08:44:16;95487.31;;;6.65;61.19
29379;BME280;16362;47.202;15.258;2023-03-15T08:46:43;95496.06;;;6.65;60.89
29379;BME280;16362;47.202;15.258;2023-03-15T08:49:09;95509.81;;;6.69;61.84
29379;BME280;16362;47.202;15.258;2023-03-15T08:51:49;95508.03;;;6.53;62.14
29379;BME280;16362;47.202;15.258;2023-03-15T08:54:16;95507.22;;;6.52;60.49
29379;BME280;16362;47.202;15.258;2023-03-15T08:56:42;95512.81;;;6.57;60.33
29379;BME280;16362;47.202;15.258;2023-03-15T08:59:09;95514.16;;;6.53;60.34
29379;BME280;16362;47.202;15.258;2023-03-15T09:01:39;95516.63;;;6.63;61.99
29379;BME280;16362;47.202;15.258;2023-03-15T09:04:06;95524.06;;;6.76;60.80
29379;BME280;16362;47.202;15.258;2023-03-15T09:06:32;95518.78;;;6.68;59.73
29379;BME280;16362;47.202;15.258;2023-03-15T09:08:59;95525.06;;;6.75;59.43
29379;BME280;16362;47.202;15.258;2023-03-15T09:11:26;95523.06;;;6.77;58.49
29379;BME280;16362;47.202;15.258;2023-03-15T09:13:52;95524.91;;;6.77;58.70
29379;BME280;16362;47.202;15.258;2023-03-15T09:16:19;95531.84;;;6.78;57.98
29379;BME280;16362;47.202;15.258;2023-03-15T09:18:45;95528.03;;;6.80;55.92
29379;BME280;16362;47.202;15.258;2023-03-15T09:21:12;95531.16;;;6.92;56.53
29379;BME280;16362;47.202;15.258;2023-03-15T09:23:38;95529.28;;;7.01;57.01
29379;BME280;16362;47.202;15.258;2023-03-15T09:26:05;95530.63;;;6.97;55.04
29379;BME280;16362;47.202;15.258;2023-03-15T09:28:32;95537.13;;;6.86;54.25
29379;BME280;16362;47.202;15.258;2023-03-15T09:31:02;95542.28;;;6.96;54.93
29379;BME280;16362;47.202;15.258;2023-03-15T09:34:54;95546.91;;;6.85;55.48
29379;BME280;16362;47.202;15.258;2023-03-15T09:37:20;95545.88;;;7.03;56.00
29379;BME280;16362;47.202;15.258;2023-03-15T09:39:47;95559.09;;;7.19;53.75
29379;BME280;16362;47.202;15.258;2023-03-15T09:50:12;95576.06;;;7.02;53.80
29379;BME280;16362;47.202;15.258;2023-03-15T09:52:52;95585.16;;;7.16;56.16
29379;BME280;16362;47.202;15.258;2023-03-15T09:55:26;95584.88;;;6.94;55.09
29379;BME280;16362;47.202;15.258;2023-03-15T09:57:59;95597.75;;;7.14;56.28
29379;BME280;16362;47.202;15.258;2023-03-15T10:02:57;95599.63;;;6.88;54.46
29379;BME280;16362;47.202;15.258;2023-03-15T10:05:51;95608.44;;;6.81;55.99
29379;BME280;16362;47.202;15.258;2023-03-15T10:08:15;95614.38;;;6.99;55.11
29379;BME280;16362;47.202;15.258;2023-03-15T10:16:13;95607.22;;;7.08;54.59
29379;BME280;16362;47.202;15.258;2023-03-15T10:19:20;95619.00;;;7.05;52.80
29379;BME280;16362;47.202;15.258;2023-03-15T10:21:37;95604.47;;;6.77;54.01
29379;BME280;16362;47.202;15.258;2023-03-15T10:24:18;95618.22;;;6.47;54.12
29379;BME280;16362;47.202;15.258;2023-03-15T10:26:45;95628.63;;;6.40;53.67
29379;BME280;16362;47.202;15.258;2023-03-15T10:29:19;95633.75;;;6.34;53.36
29379;BME280;16362;47.202;15.258;2023-03-15T10:31:46;95647.34;;;6.39;54.49
29379;BME280;16362;47.202;15.258;2023-03-15T10:34:13;95643.03;;;6.30;53.69
29379;BME280;16362;47.202;15.258;2023-03-15T10:36:46;95642.88;;;6.48;53.71
29379;BME280;16362;47.202;15.258;2023-03-15T10:39:15;95654.34;;;6.73;53.12
29379;BME280;16362;47.202;15.258;2023-03-15T10:41:42;95652.34;;;7.08;51.52
29379;BME280;16362;47.202;15.258;2023-03-15T10:46:39;95652.50;;;7.15;49.41
29379;BME280;16362;47.202;15.258;2023-03-15T10:49:15;95650.19;;;7.20;49.94
29379;BME280;16362;47.202;15.258;2023-03-15T10:51:43;95660.28;;;7.16;48.84
29379;BME280;16362;47.202;15.258;2023-03-15T10:54:11;95665.94;;;7.21;49.75
29379;BME280;16362;47.202;15.258;2023-03-15T10:59:15;95691.97;;;6.93;48.72
29379;BME280;16362;47.202;15.258;2023-03-15T11:01:44;95677.06;;;6.76;47.80
29379;BME280;16362;47.202;15.258;2023-03-15T11:04:23;95673.06;;;6.80;47.36
29379;BME280;16362;47.202;15.258;2023-03-15T11:07:01;95670.75;;;7.01;46.97
29379;BME280;16362;47.202;15.258;2023-03-15T11:09:42;95695.44;;;7.02;47.10
29379;BME280;16362;47.202;15.258;2023-03-15T11:12:09;95681.19;;;6.70;47.48
29379;BME280;16362;47.202;15.258;2023-03-15T11:14:45;95674.22;;;6.69;48.96
29379;BME280;16362;47.202;15.258;2023-03-15T11:17:17;95664.59;;;6.68;47.92
29379;BME280;16362;47.202;15.258;2023-03-15T11:19:54;95673.41;;;7.10;49.06
29379;BME280;16362;47.202;15.258;2023-03-15T11:22:22;95674.38;;;7.17;45.15
29379;BME280;16362;47.202;15.258;2023-03-15T11:24:48;95677.56;;;7.04;45.27
29379;BME280;16362;47.202;15.258;2023-03-15T11:27:15;95696.44;;;6.68;43.42
29379;BME280;16362;47.202;15.258;2023-03-15T11:29:56;95698.44;;;6.74;44.66
29379;BME280;16362;47.202;15.258;2023-03-15T11:32:25;95681.53;;;6.83;43.33
29379;BME280;16362;47.202;15.258;2023-03-15T11:37:31;95685.78;;;6.43;41.26
29379;BME280;16362;47.202;15.258;2023-03-15T11:40:43;95695.72;;;6.49;43.05
29379;BME280;16362;47.202;15.258;2023-03-15T11:43:07;95679.88;;;6.66;42.42
29379;BME280;16362;47.202;15.258;2023-03-15T11:48:28;95689.47;;;6.67;40.55
29379;BME280;16362;47.202;15.258;2023-03-15T11:50:56;95682.81;;;6.63;41.08
29379;BME280;16362;47.202;15.258;2023-03-15T11:53:26;95704.91;;;6.71;42.03
29379;BME280;16362;47.202;15.258;2023-03-15T11:55:56;95688.97;;;6.80;40.82
29379;BME280;16362;47.202;15.258;2023-03-15T11:58:34;95703.91;;;6.72;39.24
29379;BME280;16362;47.202;15.258;2023-03-15T12:01:09;95710.72;;;6.91;40.78
29379;BME280;16362;47.202;15.258;2023-03-15T12:03:40;95703.88;;;6.64;40.05
29379;BME280;16362;47.202;15.258;2023-03-15T12:06:11;95711.63;;;6.41;39.48
29379;BME280;16362;47.202;15.258;2023-03-15T12:08:42;95709.34;;;6.54;40.32
29379;BME280;16362;47.202;15.258;2023-03-15T12:11:12;95707.53;;;6.63;38.59
29379;BME280;16362;47.202;15.258;2023-03-15T12:13:49;95710.13;;;6.38;38.32
29379;BME280;16362;47.202;15.258;2023-03-15T12:16:18;95704.38;;;6.51;38.67
29379;BME280;16362;47.202;15.258;2023-03-15T12:18:46;95706.13;;;6.34;39.62
29379;BME280;16362;47.202;15.258;2023-03-15T12:22:42;95718.38;;;5.93;39.52
29379;BME280;16362;47.202;15.258;2023-03-15T12:25:16;95718.13;;;6.04;40.95
29379;BME280;16362;47.202;15.258;2023-03-15T12:27:49;95712.72;;;6.22;39.78
29379;BME280;16362;47.202;15.258;2023-03-15T12:30:38;95720.53;;;6.32;40.40
29379;BME280;16362;47.202;15.258;2023-03-15T12:33:04;95717.22;;;6.30;39.71
29379;BME280;16362;47.202;15.258;2023-03-15T12:35:39;95726.22;;;6.45;39.97
29379;BME280;16362;47.202;15.258;2023-03-15T12:38:19;95713.97;;;6.44;38.37
29379;BME280;16362;47.202;15.258;2023-03-15T12:40:56;95732.91;;;6.66;39.23
29379;BME280;16362;47.202;15.258;2023-03-15T12:43:39;95716.31;;;6.80;37.48
29379;BME280;16362;47.202;15.258;2023-03-15T12:46:51;95717.97;;;6.56;37.77
29379;BME280;16362;47.202;15.258;2023-03-15T12:49:04;95726.53;;;6.34;38.38
29379;BME280;16362;47.202;15.258;2023-03-15T12:51:42;95729.59;;;6.21;37.47
29379;BME280;16362;47.202;15.258;2023-03-15T12:54:10;95739.72;;;6.17;37.98
29379;BME280;16362;47.202;15.258;2023-03-15T12:56:40;95744.34;;;6.15;37.62
29379;BME280;16362;47.202;15.258;2023-03-15T12:59:15;95731.09;;;6.15;37.65
29379;BME280;16362;47.202;15.258;2023-03-15T13:01:43;95737.50;;;6.04;37.34
29379;BME280;16362;47.202;15.258;2023-03-15T13:04:10;95748.69;;;5.90;37.94
29379;BME280;16362;47.202;15.258;2023-03-15T13:15:30;95732.09;;;5.88;37.77
29379;BME280;16362;47.202;15.258;2023-03-15T13:18:04;95736.63;;;5.96;39.15
29379;BME280;16362;47.202;15.258;2023-03-15T13:23:32;95743.38;;;5.90;37.81
29379;BME280;16362;47.202;15.258;2023-03-15T13:28:35;95754.72;;;5.74;38.96
29379;BME280;16362;47.202;15.258;2023-03-15T13:31:21;95752.69;;;5.68;39.43
29379;BME280;16362;47.202;15.258;2023-03-15T13:33:49;95753.16;;;5.63;38.81
29379;BME280;16362;47.202;15.258;2023-03-15T13:36:24;95752.84;;;5.66;40.37
29379;BME280;16362;47.202;15.258;2023-03-15T13:38:53;95754.84;;;5.64;39.46
29379;BME280;16362;47.202;15.258;2023-03-15T13:41:26;95772.47;;;5.55;40.57
29379;BME280;16362;47.202;15.258;2023-03-15T13:43:54;95765.06;;;5.41;38.89
29379;BME280;16362;47.202;15.258;2023-03-15T13:46:23;95753.34;;;5.44;39.71
29379;BME280;16362;47.202;15.258;2023-03-15T13:48:50;95759.19;;;5.47;40.74
29379;BME280;16362;47.202;15.258;2023-03-15T13:51:26;95759.56;;;5.34;40.63
29379;BME280;16362;47.202;15.258;2023-03-15T13:54:03;95763.00;;;5.27;41.06
29379;BME280;16362;47.202;15.258;2023-03-15T13:56:31;95767.91;;;5.21;41.04
29379;BME280;16362;47.202;15.258;2023-03-15T13:59:12;95778.56;;;5.30;41.33
29379;BME280;16362;47.202;15.258;2023-03-15T14:01:39;95785.84;;;5.28;41.90
29379;BME280;16362;47.202;15.258;2023-03-15T14:04:09;95807.28;;;5.25;40.60
29379;BME280;16362;47.202;15.258;2023-03-15T14:06:39;95800.50;;;5.22;42.01
29379;BME280;16362;47.202;15.258;2023-03-15T14:09:08;95800.88;;;5.27;41.75
29379;BME280;16362;47.202;15.258;2023-03-15T14:11:36;95807.81;;;5.28;40.67
29379;BME280;16362;47.202;15.258;2023-03-15T14:17:05;95809.34;;;5.13;40.49
29379;BME280;16362;47.202;15.258;2023-03-15T14:19:32;95810.56;;;5.18;41.88